createdAt,value
2022-12-17T00:01:09.179Z,31.75
2022-12-17T00:03:56.902Z,34.28
2022-12-17T00:06:42.171Z,35.70
2022-12-17T00:09:27.307Z,32.40
2022-12-17T00:12:12.398Z,32.83
2022-12-17T00:14:57.716Z,32.03
2022-12-17T00:17:42.755Z,30.73
2022-12-17T00:20:28.485Z,34.83
2022-12-17T00:23:21.831Z,33.92
2022-12-17T00:26:11.709Z,34.35
2022-12-17T00:28:57.502Z,36.67
2022-12-17T00:31:45.197Z,35.50
2022-12-17T00:34:31.363Z,35.95
2022-12-17T00:37:17.287Z,35.80
2022-12-17T00:40:03.532Z,34.75
2022-12-17T00:42:48.614Z,36.50
2022-12-17T00:45:33.719Z,35.63
2022-12-17T00:48:18.997Z,34.85
2022-12-17T00:51:04.178Z,36.25
2022-12-17T00:53:49.376Z,34.75
2022-12-17T00:56:34.580Z,33.70
2022-12-17T00:59:19.728Z,35.42
2022-12-17T01:02:05.021Z,36.00
2022-12-17T01:04:50.517Z,37.30
2022-12-17T01:07:35.412Z,37.70
2022-12-17T01:10:20.645Z,32.30
2022-12-17T01:13:05.925Z,35.75
2022-12-17T01:15:51.143Z,36.17
2022-12-17T01:18:37.755Z,34.15
2022-12-17T01:21:22.958Z,37.97
2022-12-17T01:24:08.238Z,36.78
2022-12-17T01:26:53.319Z,34.65
2022-12-17T01:29:41.335Z,34.75
2022-12-17T01:32:26.488Z,35.40
2022-12-17T01:35:11.333Z,33.53
2022-12-17T01:37:56.548Z,34.33
2022-12-17T01:40:41.666Z,34.95
2022-12-17T01:43:31.653Z,34.20
2022-12-17T01:46:18.357Z,30.30
2022-12-17T01:49:06.080Z,30.33
2022-12-17T01:51:52.357Z,31.83
2022-12-17T01:54:38.160Z,27.80
2022-12-17T01:57:25.376Z,28.83
2022-12-17T02:00:40.097Z,29.55
2022-12-17T02:03:32.763Z,29.55
2022-12-17T02:06:43.585Z,29.45
2022-12-17T02:09:40.934Z,29.75
2022-12-17T02:12:43.466Z,33.13
2022-12-17T02:15:50.742Z,22.73
2022-12-17T02:19:03.724Z,29.02
2022-12-17T02:21:52.234Z,28.08
2022-12-17T02:24:55.431Z,30.80
2022-12-17T02:30:29.172Z,28.90
2022-12-17T02:33:14.724Z,30.45
2022-12-17T02:36:10.747Z,28.98
2022-12-17T02:38:56.689Z,31.45
2022-12-17T02:41:46.898Z,31.17
2022-12-17T02:44:37.046Z,28.88
2022-12-17T02:47:26.317Z,30.38
2022-12-17T02:50:12.133Z,29.60
2022-12-17T02:53:06.144Z,31.08
2022-12-17T02:55:53.022Z,29.05
2022-12-17T02:58:38.464Z,32.85
2022-12-17T03:01:23.821Z,34.08
2022-12-17T03:04:09.499Z,32.50
2022-12-17T03:06:54.911Z,31.77
2022-12-17T03:09:40.797Z,33.00
2022-12-17T03:12:27.760Z,34.83
2022-12-17T03:15:12.754Z,34.47
2022-12-17T03:17:57.899Z,34.20
2022-12-17T03:20:42.682Z,33.05
2022-12-17T03:23:29.999Z,33.28
2022-12-17T03:26:19.869Z,31.33
2022-12-17T03:29:04.999Z,31.70
2022-12-17T03:31:50.121Z,31.38
2022-12-17T03:34:35.207Z,30.00
2022-12-17T03:37:20.357Z,29.48
2022-12-17T03:40:05.313Z,30.75
2022-12-17T03:42:50.382Z,30.95
2022-12-17T03:45:35.342Z,29.27
2022-12-17T03:48:31.874Z,28.48
2022-12-17T03:51:19.121Z,29.85
2022-12-17T03:54:05.106Z,31.05
2022-12-17T03:56:50.935Z,30.23
2022-12-17T03:59:36.220Z,33.95
2022-12-17T04:02:21.408Z,32.33
2022-12-17T04:05:06.883Z,30.90
2022-12-17T04:07:52.010Z,30.75
2022-12-17T04:10:37.202Z,31.85
2022-12-17T04:13:22.475Z,31.45
2022-12-17T04:16:07.623Z,31.08
2022-12-17T04:18:52.860Z,32.72
2022-12-17T04:21:37.819Z,30.70
2022-12-17T04:24:23.342Z,30.42
2022-12-17T04:27:08.458Z,31.30
2022-12-17T04:29:53.610Z,32.50
2022-12-17T04:32:38.621Z,29.10
2022-12-17T04:35:23.781Z,30.83
2022-12-17T04:38:08.998Z,31.25
2022-12-17T04:40:54.159Z,33.65
2022-12-17T04:43:39.611Z,33.15
2022-12-17T04:46:24.890Z,32.97
2022-12-17T04:49:10.176Z,33.42
2022-12-17T04:51:55.212Z,34.25
2022-12-17T04:54:40.315Z,33.05
2022-12-17T04:57:25.593Z,32.53
2022-12-17T05:00:11.623Z,35.17
2022-12-17T05:02:57.200Z,32.30
2022-12-17T05:05:42.246Z,34.10
2022-12-17T05:08:27.512Z,33.20
2022-12-17T05:11:12.729Z,32.95
2022-12-17T05:13:57.815Z,31.20
2022-12-17T05:16:43.013Z,30.90
2022-12-17T05:19:27.911Z,34.10
2022-12-17T05:22:13.025Z,33.60
2022-12-17T05:24:58.120Z,31.38
2022-12-17T05:27:43.300Z,33.05
2022-12-17T05:30:29.019Z,30.60
2022-12-17T05:33:21.267Z,33.00
2022-12-17T05:36:06.964Z,35.17
2022-12-17T05:38:52.229Z,31.30
2022-12-17T05:41:37.319Z,33.90
2022-12-17T05:44:22.516Z,33.45
2022-12-17T05:47:07.816Z,33.42
2022-12-17T05:49:53.075Z,34.40
2022-12-17T05:52:41.975Z,35.83
2022-12-17T05:55:27.745Z,34.17
2022-12-17T05:58:21.062Z,34.47
2022-12-17T06:01:06.300Z,40.00
2022-12-17T06:03:51.716Z,37.60
2022-12-17T06:06:36.925Z,37.30
2022-12-17T06:09:22.117Z,38.08
2022-12-17T06:12:07.347Z,36.45
2022-12-17T06:14:52.255Z,37.67
2022-12-17T06:17:37.191Z,34.35
2022-12-17T06:20:22.955Z,32.78
2022-12-17T06:23:20.864Z,33.60
2022-12-17T06:26:06.103Z,34.50
2022-12-17T06:28:51.125Z,34.85
2022-12-17T06:31:36.407Z,34.80
2022-12-17T06:34:21.607Z,33.67
2022-12-17T06:37:06.928Z,34.13
2022-12-17T06:39:52.121Z,34.28
2022-12-17T06:42:37.344Z,34.28
2022-12-17T06:45:23.002Z,31.10
2022-12-17T06:48:08.194Z,33.35
2022-12-17T06:50:53.142Z,35.60
2022-12-17T06:53:58.246Z,32.83
2022-12-17T06:56:43.380Z,34.05
2022-12-17T06:59:28.113Z,35.70
2022-12-17T07:02:13.385Z,34.60
2022-12-17T07:04:58.826Z,35.88
2022-12-17T07:07:43.617Z,36.97
2022-12-17T07:10:28.968Z,37.20
2022-12-17T07:13:13.902Z,40.72
2022-12-17T07:15:59.194Z,34.92
2022-12-17T07:18:44.437Z,36.70
2022-12-17T07:21:29.916Z,38.53
2022-12-17T07:24:15.878Z,39.22
2022-12-17T07:27:01.166Z,40.33
2022-12-17T07:29:46.339Z,39.05
2022-12-17T07:32:31.078Z,37.25
2022-12-17T07:35:19.029Z,40.00
2022-12-17T07:38:04.326Z,39.25
2022-12-17T07:40:49.426Z,38.10
2022-12-17T07:43:34.686Z,37.75
2022-12-17T07:46:20.648Z,39.53
2022-12-17T07:49:06.984Z,35.25
2022-12-17T07:51:52.262Z,38.70
2022-12-17T07:54:37.431Z,37.33
2022-12-17T07:57:36.342Z,36.60
2022-12-17T08:00:22.055Z,35.92
2022-12-17T08:03:07.446Z,35.78
2022-12-17T08:05:52.715Z,33.17
2022-12-17T08:08:37.856Z,33.10
2022-12-17T08:11:23.182Z,33.08
2022-12-17T08:14:08.363Z,35.08
2022-12-17T08:16:53.757Z,36.75
2022-12-17T08:19:39.186Z,39.03
2022-12-17T08:22:24.224Z,38.72
2022-12-17T08:25:09.024Z,39.70
2022-12-17T08:27:54.295Z,37.20
2022-12-17T08:30:39.717Z,39.65
2022-12-17T08:33:25.465Z,38.35
2022-12-17T08:36:14.745Z,37.63
2022-12-17T08:39:00.160Z,40.03
2022-12-17T08:41:51.061Z,39.03
2022-12-17T08:44:39.246Z,36.58
2022-12-17T08:47:24.561Z,37.13
2022-12-17T08:50:09.622Z,36.75
2022-12-17T08:52:54.871Z,38.70
2022-12-17T08:55:40.198Z,35.70
2022-12-17T08:58:25.338Z,37.97
2022-12-17T09:01:10.700Z,36.53
2022-12-17T09:03:55.794Z,36.85
2022-12-17T09:06:40.930Z,37.08
2022-12-17T09:09:25.982Z,37.88
2022-12-17T09:12:10.925Z,38.13
2022-12-17T09:14:56.230Z,36.55
2022-12-17T09:17:41.339Z,34.38
2022-12-17T09:20:29.449Z,36.65
2022-12-17T09:23:14.814Z,36.40
2022-12-17T09:25:59.903Z,38.08
2022-12-17T09:28:45.156Z,36.22
2022-12-17T09:31:35.460Z,34.42
2022-12-17T09:34:22.461Z,26.27
2022-12-17T09:37:07.410Z,35.28
2022-12-17T09:39:52.420Z,37.03
2022-12-17T09:43:00.549Z,36.78
2022-12-17T09:45:51.873Z,35.67
2022-12-17T09:48:53.969Z,36.28
2022-12-17T09:51:44.737Z,37.00
2022-12-17T09:54:39.332Z,35.53
2022-12-17T09:57:30.001Z,36.75
2022-12-17T10:00:14.749Z,34.63
2022-12-17T10:02:59.976Z,38.63
2022-12-17T10:05:49.077Z,38.03
2022-12-17T10:08:38.931Z,39.58
2022-12-17T10:11:40.202Z,35.90
2022-12-17T10:14:42.398Z,40.08
2022-12-17T10:17:34.003Z,37.70
2022-12-17T10:20:19.969Z,36.53
2022-12-17T10:23:08.884Z,37.75
2022-12-17T10:25:55.183Z,37.17
2022-12-17T10:28:43.106Z,37.03
2022-12-17T10:31:57.256Z,36.13
2022-12-17T10:34:42.530Z,36.00
2022-12-17T10:37:38.003Z,35.83
2022-12-17T10:40:35.900Z,37.35
2022-12-17T10:43:21.023Z,35.83
2022-12-17T10:46:16.029Z,36.72
2022-12-17T10:49:01.300Z,35.50
2022-12-17T10:51:53.179Z,34.70
2022-12-17T10:54:48.777Z,37.45
2022-12-17T10:57:42.789Z,39.90
2022-12-17T11:00:58.530Z,33.90
2022-12-17T11:04:07.308Z,36.88
2022-12-17T11:06:55.935Z,38.15
2022-12-17T11:09:50.181Z,35.67
2022-12-17T11:12:37.238Z,36.50
2022-12-17T11:15:35.095Z,36.88
2022-12-17T11:18:20.739Z,35.65
2022-12-17T11:21:24.969Z,37.10
2022-12-17T11:24:11.302Z,36.25
2022-12-17T11:26:59.706Z,37.70
2022-12-17T11:29:45.308Z,35.67
2022-12-17T11:32:57.523Z,38.60
2022-12-17T11:35:52.265Z,36.28
2022-12-17T11:38:49.592Z,36.33
2022-12-17T11:41:43.220Z,36.85
2022-12-17T11:44:40.401Z,36.30
2022-12-17T11:47:35.245Z,39.50
2022-12-17T11:50:44.816Z,36.33
2022-12-17T11:53:53.950Z,37.72
2022-12-17T11:56:44.987Z,35.97
2022-12-17T11:59:50.940Z,36.97
2022-12-17T12:02:58.047Z,36.55
2022-12-17T12:06:03.230Z,36.83
2022-12-17T12:09:18.962Z,35.13
2022-12-17T12:12:33.438Z,34.88
2022-12-17T12:15:37.553Z,36.22
2022-12-17T12:18:31.977Z,33.47
2022-12-17T12:21:28.581Z,34.65
2022-12-17T12:24:38.034Z,33.65
2022-12-17T12:27:54.462Z,34.92
2022-12-17T12:30:42.702Z,32.67
2022-12-17T12:33:46.130Z,35.78
2022-12-17T12:36:34.288Z,34.13
2022-12-17T12:39:20.409Z,36.30
2022-12-17T12:42:34.501Z,36.65
2022-12-17T12:45:49.560Z,37.80
2022-12-17T12:48:40.637Z,37.10
2022-12-17T12:51:35.365Z,38.08
2022-12-17T12:55:10.744Z,37.72
2022-12-17T12:58:00.984Z,35.05
2022-12-17T13:00:55.144Z,34.72
2022-12-17T13:03:52.423Z,36.38
2022-12-17T13:06:45.554Z,36.42
2022-12-17T13:09:14.979Z,37.55
2022-12-17T13:11:44.371Z,35.13
2022-12-17T13:14:18.942Z,34.83
2022-12-17T13:16:48.567Z,32.42
2022-12-17T13:19:40.567Z,31.50
2022-12-17T13:22:27.997Z,32.60
2022-12-17T13:25:16.124Z,33.65
2022-12-17T13:27:43.074Z,34.10
2022-12-17T13:30:23.843Z,32.75
2022-12-17T13:33:14.556Z,34.55
2022-12-17T13:35:54.173Z,34.65
2022-12-17T13:38:32.886Z,32.13
2022-12-17T13:41:10.968Z,36.00
2022-12-17T13:43:50.306Z,36.95
2022-12-17T13:46:23.727Z,38.17
2022-12-17T13:48:54.900Z,37.58
2022-12-17T13:51:22.869Z,37.55
2022-12-17T13:53:55.498Z,38.65
2022-12-17T13:56:37.099Z,37.90
2022-12-17T13:59:09.399Z,38.03
2022-12-17T14:04:40.625Z,35.92
2022-12-17T14:07:07.203Z,38.40
2022-12-17T14:09:43.600Z,40.00
2022-12-17T14:12:21.945Z,37.63
2022-12-17T14:14:49.626Z,38.35
2022-12-17T14:17:20.917Z,39.60
2022-12-17T14:19:52.367Z,39.47
2022-12-17T14:22:49.449Z,37.95
2022-12-17T14:25:21.952Z,36.80
2022-12-17T14:27:56.017Z,37.58
2022-12-17T14:31:17.271Z,38.30
2022-12-17T14:33:37.673Z,37.58
2022-12-17T14:36:16.901Z,37.10
2022-12-17T14:38:58.379Z,37.83
2022-12-17T14:41:44.415Z,38.60
2022-12-17T14:44:23.925Z,36.63
2022-12-17T14:46:53.859Z,35.25
2022-12-17T14:49:22.235Z,36.97
2022-12-17T14:51:49.481Z,37.55
2022-12-17T14:54:29.202Z,35.78
2022-12-17T14:56:57.827Z,36.72
2022-12-17T14:59:37.897Z,35.10
2022-12-17T15:02:07.448Z,33.72
2022-12-17T15:04:37.060Z,35.42
2022-12-17T15:07:05.864Z,32.45
2022-12-17T15:09:37.328Z,34.83
2022-12-17T15:12:04.092Z,34.53
2022-12-17T15:14:30.600Z,33.60
2022-12-17T15:16:58.920Z,32.47
2022-12-17T15:19:25.452Z,34.33
2022-12-17T15:21:52.077Z,33.60
2022-12-17T15:24:20.690Z,32.08
2022-12-17T15:26:47.826Z,31.67
2022-12-17T15:29:14.614Z,31.00
2022-12-17T15:31:41.213Z,36.05
2022-12-17T15:34:09.551Z,34.15
2022-12-17T15:36:36.070Z,34.85
2022-12-17T15:39:05.131Z,31.27
2022-12-17T15:41:50.255Z,35.85
2022-12-17T15:44:16.728Z,31.45
2022-12-17T15:46:43.299Z,31.45
2022-12-17T15:49:09.898Z,30.30
2022-12-17T15:51:36.404Z,29.60
2022-12-17T15:54:02.963Z,30.75
2022-12-17T15:56:29.503Z,32.30
2022-12-17T15:58:59.255Z,30.25
2022-12-17T16:01:25.986Z,31.08
2022-12-17T16:03:52.763Z,30.95
2022-12-17T16:06:19.480Z,30.80
2022-12-17T16:08:45.930Z,28.25
2022-12-17T16:11:13.769Z,30.10
2022-12-17T16:13:40.487Z,32.15
2022-12-17T16:16:07.770Z,31.10
2022-12-17T16:18:36.257Z,28.85
2022-12-17T16:21:04.538Z,31.60
2022-12-17T16:23:31.565Z,29.30
2022-12-17T16:26:00.352Z,32.15
2022-12-17T16:28:28.150Z,30.45
2022-12-17T16:30:59.601Z,33.17
2022-12-17T16:33:29.899Z,31.67
2022-12-17T16:35:59.128Z,31.58
2022-12-17T16:38:25.676Z,31.17
2022-12-17T16:41:01.084Z,32.15
2022-12-17T16:43:32.149Z,32.63
2022-12-17T16:45:58.642Z,31.20
2022-12-17T16:48:25.168Z,31.23
2022-12-17T16:50:51.775Z,30.40
2022-12-17T16:53:18.925Z,31.67
2022-12-17T16:55:49.320Z,31.92
2022-12-17T16:58:17.727Z,31.30
2022-12-17T17:00:46.195Z,33.65
2022-12-17T17:03:12.865Z,30.77
2022-12-17T17:05:40.151Z,30.42
2022-12-17T17:08:07.247Z,32.83
2022-12-17T17:10:36.796Z,30.40
2022-12-17T17:13:03.975Z,32.28
2022-12-17T17:15:30.662Z,33.22
2022-12-17T17:18:02.552Z,31.80
2022-12-17T17:20:32.246Z,40.47
2022-12-17T17:22:59.722Z,38.28
2022-12-17T17:25:43.954Z,35.70
2022-12-17T17:28:13.543Z,31.50
2022-12-17T17:30:40.072Z,33.58
2022-12-17T17:33:06.607Z,30.35
2022-12-17T17:35:33.132Z,30.20
2022-12-17T17:37:59.771Z,30.90
2022-12-17T17:40:26.296Z,30.55
2022-12-17T17:42:53.240Z,32.40
2022-12-17T17:45:19.931Z,30.13
2022-12-17T17:47:46.448Z,32.92
2022-12-17T17:50:12.903Z,30.20
2022-12-17T17:52:39.389Z,31.17
2022-12-17T17:55:06.526Z,31.95
2022-12-17T17:57:33.027Z,31.77
2022-12-17T17:59:59.489Z,31.30
2022-12-17T18:02:26.281Z,30.67
2022-12-17T18:04:52.887Z,34.15
2022-12-17T18:07:27.436Z,33.10
2022-12-17T18:09:55.634Z,30.45
2022-12-17T18:12:41.468Z,28.45
2022-12-17T18:15:17.789Z,28.05
2022-12-17T18:17:47.023Z,27.65
2022-12-17T18:20:14.143Z,28.23
2022-12-17T18:22:40.911Z,27.70
2022-12-17T18:25:07.624Z,25.52
2022-12-17T18:27:34.183Z,29.17
2022-12-17T18:30:00.710Z,27.60
2022-12-17T18:32:27.413Z,27.02
2022-12-17T18:34:54.060Z,27.20
2022-12-17T18:37:20.718Z,27.88
2022-12-17T18:39:48.924Z,29.58
2022-12-17T18:42:50.323Z,27.85
2022-12-17T18:45:17.037Z,28.33
2022-12-17T18:47:44.645Z,29.05
2022-12-17T18:50:12.609Z,28.33
2022-12-17T18:52:39.376Z,26.77
2022-12-17T18:55:06.380Z,27.73
2022-12-17T18:57:32.876Z,25.30
2022-12-17T19:00:00.446Z,28.48
2022-12-17T19:02:27.018Z,29.77
2022-12-17T19:04:53.564Z,29.95
2022-12-17T19:07:20.030Z,28.40
2022-12-17T19:09:46.601Z,26.98
2022-12-17T19:12:13.193Z,27.88
2022-12-17T19:14:39.677Z,26.73
2022-12-17T19:17:06.254Z,24.50
2022-12-17T19:19:33.521Z,25.95
2022-12-17T19:22:00.302Z,27.33
2022-12-17T19:24:27.047Z,25.95
2022-12-17T19:26:53.625Z,30.10
2022-12-17T19:29:20.899Z,27.77
2022-12-17T19:31:47.916Z,28.23
2022-12-17T19:34:16.626Z,29.95
2022-12-17T19:36:44.038Z,31.20
2022-12-17T19:39:13.393Z,31.00
2022-12-17T19:41:40.595Z,30.45
2022-12-17T19:44:11.360Z,32.42
2022-12-17T19:46:38.462Z,30.13
2022-12-17T19:49:07.717Z,31.52
2022-12-17T19:51:34.253Z,33.72
2022-12-17T19:54:08.113Z,33.15
2022-12-17T19:56:35.919Z,30.13
2022-12-17T19:59:07.368Z,29.40
2022-12-17T20:01:37.102Z,29.05
2022-12-17T20:04:04.922Z,32.78
2022-12-17T20:06:33.692Z,32.70
2022-12-17T20:09:01.290Z,31.13
2022-12-17T20:11:34.484Z,30.50
2022-12-17T20:14:23.556Z,30.80
2022-12-17T20:16:56.551Z,29.95
2022-12-17T20:19:25.661Z,31.20
2022-12-17T20:21:53.706Z,32.17
2022-12-17T20:24:21.846Z,33.17
2022-12-17T20:26:52.510Z,30.63
2022-12-17T20:29:24.192Z,30.13
2022-12-17T20:31:51.916Z,31.30
2022-12-17T20:34:20.138Z,30.42
2022-12-17T20:36:46.614Z,30.30
2022-12-17T20:39:13.129Z,27.85
2022-12-17T20:41:40.201Z,28.85
2022-12-17T20:44:08.808Z,30.40
2022-12-17T20:46:36.905Z,29.23
2022-12-17T20:49:05.371Z,30.05
2022-12-17T20:51:32.255Z,29.30
2022-12-17T20:54:01.031Z,31.75
2022-12-17T20:56:30.854Z,30.20
2022-12-17T20:59:00.418Z,31.45
2022-12-17T21:01:29.186Z,31.75
2022-12-17T21:03:57.178Z,31.52
2022-12-17T21:06:30.814Z,32.25
2022-12-17T21:08:57.432Z,32.35
2022-12-17T21:11:29.139Z,32.33
2022-12-17T21:13:56.297Z,32.30
2022-12-17T21:16:26.655Z,34.00
2022-12-17T21:18:54.130Z,33.63
2022-12-17T21:21:23.573Z,35.70
2022-12-17T21:23:51.149Z,37.47
2022-12-17T21:26:32.658Z,31.90
2022-12-17T21:29:00.518Z,34.55
2022-12-17T21:31:34.186Z,34.40
2022-12-17T21:34:03.802Z,35.33
2022-12-17T21:36:32.442Z,39.22
2022-12-17T21:38:59.909Z,33.72
2022-12-17T21:41:32.961Z,37.15
2022-12-17T21:44:02.076Z,35.83
2022-12-17T21:46:29.451Z,33.17
2022-12-17T21:48:57.606Z,32.63
2022-12-17T21:51:24.817Z,33.88
2022-12-17T21:53:56.362Z,32.53
2022-12-17T21:56:23.857Z,32.08
2022-12-17T21:58:55.347Z,31.85
2022-12-17T22:01:25.415Z,33.08
2022-12-17T22:03:54.508Z,31.67
2022-12-17T22:06:25.693Z,32.33
2022-12-17T22:09:00.866Z,30.08
2022-12-17T22:11:39.395Z,29.92
2022-12-17T22:14:09.115Z,29.92
2022-12-17T22:16:49.779Z,30.38
2022-12-17T22:19:23.118Z,30.77
2022-12-17T22:21:51.447Z,30.52
2022-12-17T22:24:24.678Z,30.30
2022-12-17T22:26:51.216Z,31.23
2022-12-17T22:29:37.635Z,44.70
2022-12-17T22:32:25.261Z,33.35
2022-12-17T22:36:50.321Z,34.40
2022-12-17T22:40:11.562Z,28.90
2022-12-17T22:43:34.288Z,31.55
2022-12-17T22:44:42.778Z,32.50
2022-12-17T22:46:17.053Z,33.03
2022-12-17T22:48:43.813Z,35.13
2022-12-17T22:51:13.143Z,36.92
2022-12-17T22:53:49.265Z,34.63
2022-12-17T22:56:33.765Z,31.38
2022-12-17T22:59:04.998Z,32.65
2022-12-17T23:01:32.346Z,32.38
2022-12-17T23:04:00.620Z,34.47
2022-12-17T23:06:27.976Z,31.63
2022-12-17T23:08:54.819Z,30.05
2022-12-17T23:11:23.776Z,30.20
2022-12-17T23:13:51.299Z,26.70
2022-12-17T23:16:18.925Z,27.67
2022-12-17T23:18:47.033Z,31.52
2022-12-17T23:21:23.812Z,29.05
2022-12-17T23:23:52.010Z,29.77
2022-12-17T23:26:24.873Z,29.30
2022-12-17T23:28:58.230Z,28.95
2022-12-17T23:31:27.003Z,27.48
2022-12-17T23:33:53.699Z,27.85
2022-12-17T23:36:22.382Z,28.77
2022-12-17T23:38:50.190Z,28.13
2022-12-17T23:41:22.058Z,25.77
2022-12-17T23:43:49.851Z,27.77
2022-12-17T23:46:17.882Z,26.27
2022-12-17T23:48:46.009Z,26.05
2022-12-17T23:51:14.855Z,25.85
2022-12-17T23:53:42.539Z,25.00
2022-12-17T23:56:13.055Z,25.65
2022-12-17T23:58:41.575Z,25.05
